createdAt,value
2023-04-01T00:00:15.012Z,42.03
2023-04-01T00:01:15.067Z,46.38
2023-04-01T00:02:15.105Z,59.00
2023-04-01T00:03:15.208Z,38.88
2023-04-01T00:04:15.250Z,49.87
2023-04-01T00:05:15.234Z,46.82
2023-04-01T00:06:15.275Z,47.88
2023-04-01T00:07:15.339Z,49.11
2023-04-01T00:08:15.382Z,54.68
2023-04-01T00:09:15.449Z,54.73
2023-04-01T00:10:15.472Z,62.00
2023-04-01T00:11:15.553Z,65.92
2023-04-01T00:12:15.585Z,48.55
2023-04-01T00:13:15.613Z,45.51
2023-04-01T00:14:15.695Z,55.12
2023-04-01T00:15:15.734Z,55.42
2023-04-01T00:16:20.954Z,57.77
2023-04-01T00:17:16.803Z,58.00
2023-04-01T00:18:15.774Z,58.11
2023-04-01T00:19:15.776Z,46.09
2023-04-01T00:20:15.734Z,51.61
2023-04-01T00:21:15.729Z,54.92
2023-04-01T00:22:15.743Z,52.66
2023-04-01T00:23:15.734Z,58.26
2023-04-01T00:24:15.703Z,62.72
2023-04-01T00:25:15.790Z,51.34
2023-04-01T00:26:15.815Z,55.54
2023-04-01T00:27:15.861Z,49.03
2023-04-01T00:28:15.918Z,45.17
2023-04-01T00:29:15.960Z,30.02
2023-04-01T00:30:16.004Z,57.97
2023-04-01T00:31:16.130Z,66.81
2023-04-01T00:32:16.089Z,64.73
2023-04-01T00:33:16.168Z,51.35
2023-04-01T00:34:16.207Z,36.08
2023-04-01T00:35:16.263Z,31.63
2023-04-01T00:36:16.389Z,47.33
2023-04-01T00:37:16.404Z,33.97
2023-04-01T00:38:16.472Z,38.76
2023-04-01T00:39:16.499Z,36.51
2023-04-01T00:40:16.591Z,34.08
2023-04-01T00:41:16.924Z,25.00
2023-04-01T00:42:16.684Z,38.18
2023-04-01T00:43:16.772Z,43.23
2023-04-01T00:44:16.829Z,31.93
2023-04-01T00:45:16.887Z,29.77
2023-04-01T00:46:17.085Z,40.69
2023-04-01T00:47:17.008Z,36.12
2023-04-01T00:48:17.071Z,37.80
2023-04-01T00:49:17.148Z,37.95
2023-04-01T00:50:17.207Z,22.38
2023-04-01T00:51:17.272Z,30.89
2023-04-01T00:52:17.320Z,53.09
2023-04-01T00:53:17.366Z,55.15
2023-04-01T00:54:17.469Z,41.88
2023-04-01T00:55:17.503Z,52.08
2023-04-01T00:56:17.542Z,44.46
2023-04-01T00:57:17.701Z,41.73
2023-04-01T00:58:17.660Z,41.24
2023-04-01T00:59:17.744Z,54.33
2023-04-01T01:00:17.789Z,40.34
2023-04-01T01:01:17.875Z,34.71
2023-04-01T01:02:17.937Z,47.59
2023-04-01T01:03:17.955Z,62.27
2023-04-01T01:04:18.014Z,52.68
2023-04-01T01:05:18.095Z,52.14
2023-04-01T01:06:18.149Z,33.45
2023-04-01T01:07:18.176Z,54.96
2023-04-01T01:08:18.273Z,56.63
2023-04-01T01:09:18.322Z,54.26
2023-04-01T01:10:18.378Z,50.81
2023-04-01T01:11:18.458Z,47.12
2023-04-01T01:12:18.503Z,47.95
2023-04-01T01:13:18.576Z,53.97
2023-04-01T01:14:18.624Z,52.87
2023-04-01T01:15:18.715Z,58.05
2023-04-01T01:16:18.792Z,50.68
2023-04-01T01:17:18.841Z,41.47
2023-04-01T01:18:18.871Z,35.86
2023-04-01T01:19:18.952Z,46.33
2023-04-01T01:20:25.879Z,35.24
2023-04-01T01:21:19.993Z,36.19
2023-04-01T01:22:18.993Z,37.37
2023-04-01T01:23:18.984Z,38.95
2023-04-01T01:24:18.999Z,34.15
2023-04-01T01:25:18.961Z,25.30
2023-04-01T01:26:18.954Z,33.47
2023-04-01T01:27:18.955Z,42.79
2023-04-01T01:28:18.958Z,47.05
2023-04-01T01:29:19.032Z,40.14
2023-04-01T01:30:19.084Z,42.98
2023-04-01T01:31:19.145Z,52.80
2023-04-01T01:32:19.170Z,44.03
2023-04-01T01:33:19.262Z,45.00
2023-04-01T01:34:19.289Z,43.38
2023-04-01T01:35:19.368Z,43.14
2023-04-01T01:36:19.426Z,37.08
2023-04-01T01:37:19.475Z,25.00
2023-04-01T01:38:19.499Z,31.34
2023-04-01T01:39:19.573Z,59.31
2023-04-01T01:40:19.626Z,51.72
2023-04-01T01:41:19.682Z,56.00
2023-04-01T01:42:19.705Z,61.00
2023-04-01T01:43:19.784Z,74.47
2023-04-01T01:44:19.855Z,74.93
2023-04-01T01:45:19.873Z,67.30
2023-04-01T01:46:19.956Z,65.07
2023-04-01T01:47:19.973Z,62.42
2023-04-01T01:48:20.034Z,65.60
2023-04-01T01:49:20.119Z,63.99
2023-04-01T01:50:20.140Z,62.64
2023-04-01T01:51:20.225Z,25.00
2023-04-01T01:52:20.264Z,36.79
2023-04-01T01:53:20.347Z,37.40
2023-04-01T01:54:20.443Z,41.08
2023-04-01T01:55:20.412Z,26.29
2023-04-01T01:56:20.459Z,39.82
2023-04-01T01:57:20.545Z,38.90
2023-04-01T01:58:20.576Z,41.28
2023-04-01T01:59:20.663Z,42.80
2023-04-01T02:00:20.704Z,62.80
2023-04-01T02:01:20.786Z,59.44
2023-04-01T02:02:20.820Z,54.19
2023-04-01T02:03:20.879Z,61.31
2023-04-01T02:04:20.993Z,62.63
2023-04-01T02:05:21.003Z,54.86
2023-04-01T02:06:21.050Z,61.71
2023-04-01T02:07:21.095Z,58.28
2023-04-01T02:08:21.220Z,60.08
2023-04-01T02:09:21.213Z,52.12
2023-04-01T02:10:21.273Z,32.20
2023-04-01T02:11:21.334Z,27.29
2023-04-01T02:12:21.387Z,34.40
2023-04-01T02:13:21.472Z,57.00
2023-04-01T02:14:21.524Z,47.06
2023-04-01T02:15:21.559Z,43.27
2023-04-01T02:16:21.677Z,71.48
2023-04-01T02:17:21.704Z,66.03
2023-04-01T02:18:21.747Z,49.31
2023-04-01T02:19:21.852Z,32.05
2023-04-01T02:20:21.891Z,45.83
2023-04-01T02:21:21.968Z,58.72
2023-04-01T02:22:22.008Z,30.49
2023-04-01T02:23:22.122Z,36.28
2023-04-01T02:24:22.161Z,44.02
2023-04-01T02:25:22.191Z,63.67
2023-04-01T02:26:22.251Z,68.74
2023-04-01T02:27:22.278Z,41.96
2023-04-01T02:28:22.369Z,42.03
2023-04-01T02:29:22.359Z,55.66
2023-04-01T02:30:22.401Z,37.86
2023-04-01T02:31:22.494Z,47.95
2023-04-01T02:32:22.568Z,41.67
2023-04-01T02:33:22.600Z,36.14
2023-04-01T02:34:22.665Z,36.29
2023-04-01T02:35:22.692Z,55.07
2023-04-01T02:36:22.805Z,56.16
2023-04-01T02:37:22.846Z,59.54
2023-04-01T02:38:22.878Z,66.48
2023-04-01T02:39:22.963Z,47.02
2023-04-01T02:40:23.024Z,49.56
2023-04-01T02:41:23.115Z,51.74
2023-04-01T02:42:23.141Z,50.10
2023-04-01T02:43:23.224Z,57.82
2023-04-01T02:44:23.274Z,61.04
2023-04-01T02:45:23.332Z,57.60
2023-04-01T02:46:23.456Z,44.44
2023-04-01T02:47:23.471Z,47.44
2023-04-01T02:48:23.499Z,43.10
2023-04-01T02:49:23.556Z,25.25
2023-04-01T02:50:24.289Z,28.25
2023-04-01T02:51:23.713Z,37.31
2023-04-01T02:52:23.759Z,50.89
2023-04-01T02:53:23.820Z,53.34
2023-04-01T02:54:23.900Z,48.83
2023-04-01T02:55:23.921Z,48.16
2023-04-01T02:56:24.004Z,35.27
2023-04-01T02:57:24.079Z,25.00
2023-04-01T02:58:24.129Z,44.72
2023-04-01T02:59:24.198Z,64.41
2023-04-01T03:00:24.262Z,74.09
2023-04-01T03:01:24.411Z,51.47
2023-04-01T03:02:24.454Z,54.17
2023-04-01T03:03:24.506Z,71.53
2023-04-01T03:04:24.543Z,69.03
2023-04-01T03:05:24.589Z,72.10
2023-04-01T03:06:24.630Z,49.42
2023-04-01T03:07:24.666Z,57.46
2023-04-01T03:08:24.702Z,71.33
2023-04-01T03:09:24.780Z,53.62
2023-04-01T03:10:24.836Z,49.14
2023-04-01T03:11:24.869Z,63.98
2023-04-01T03:12:24.936Z,43.49
2023-04-01T03:13:24.988Z,36.76
2023-04-01T03:14:25.022Z,49.12
2023-04-01T03:15:25.067Z,68.33
2023-04-01T03:16:25.139Z,73.27
2023-04-01T03:17:25.227Z,64.64
2023-04-01T03:18:25.213Z,38.57
2023-04-01T03:19:25.286Z,39.39
2023-04-01T03:20:25.314Z,45.37
2023-04-01T03:21:25.417Z,64.06
2023-04-01T03:22:25.442Z,40.63
2023-04-01T03:23:25.508Z,58.40
2023-04-01T03:24:25.600Z,62.22
2023-04-01T03:25:25.641Z,52.58
2023-04-01T03:26:25.716Z,65.22
2023-04-01T03:27:25.747Z,68.52
2023-04-01T03:28:25.814Z,48.58
2023-04-01T03:29:25.916Z,43.63
2023-04-01T03:30:25.984Z,58.91
2023-04-01T03:31:26.126Z,61.29
2023-04-01T03:32:26.124Z,61.41
2023-04-01T03:33:26.171Z,61.54
2023-04-01T03:34:26.244Z,48.24
2023-04-01T03:35:26.281Z,45.13
2023-04-01T03:36:26.498Z,41.25
2023-04-01T03:37:26.390Z,44.40
2023-04-01T03:38:26.541Z,39.27
2023-04-01T03:39:26.524Z,59.05
2023-04-01T03:40:26.593Z,70.06
2023-04-01T03:41:26.590Z,72.34
2023-04-01T03:42:26.755Z,62.60
2023-04-01T03:43:26.779Z,54.14
2023-04-01T03:44:26.800Z,68.88
2023-04-01T03:45:26.898Z,54.40
2023-04-01T03:46:26.947Z,47.68
2023-04-01T03:47:27.012Z,53.80
2023-04-01T03:48:27.010Z,58.26
2023-04-01T03:49:27.045Z,58.79
2023-04-01T03:50:27.037Z,48.01
2023-04-01T03:51:27.059Z,52.86
2023-04-01T03:52:27.112Z,53.61
2023-04-01T03:53:27.111Z,51.62
2023-04-01T03:54:27.160Z,63.75
2023-04-01T03:55:27.190Z,64.65
2023-04-01T03:56:27.209Z,64.26
2023-04-01T03:57:27.336Z,57.30
2023-04-01T03:58:27.248Z,62.01
2023-04-01T03:59:27.276Z,58.16
2023-04-01T04:00:27.270Z,56.55
2023-04-01T04:01:27.318Z,56.84
2023-04-01T04:02:27.422Z,51.96
2023-04-01T04:03:27.445Z,62.80
2023-04-01T04:04:27.443Z,66.68
2023-04-01T04:05:27.395Z,51.81
2023-04-01T04:06:27.449Z,46.97
2023-04-01T04:07:27.524Z,40.59
2023-04-01T04:08:27.553Z,47.69
2023-04-01T04:09:27.628Z,65.39
2023-04-01T04:10:27.630Z,56.01
2023-04-01T04:11:27.694Z,52.33
2023-04-01T04:12:27.793Z,61.54
2023-04-01T04:13:27.798Z,70.06
2023-04-01T04:14:27.844Z,54.80
2023-04-01T04:15:27.888Z,63.98
2023-04-01T04:16:27.988Z,64.84
2023-04-01T04:17:28.084Z,69.67
2023-04-01T04:18:28.107Z,59.34
2023-04-01T04:19:28.136Z,60.08
2023-04-01T04:20:28.203Z,53.37
2023-04-01T04:21:28.244Z,75.14
2023-04-01T04:22:28.299Z,67.88
2023-04-01T04:23:28.374Z,73.18
2023-04-01T04:24:28.430Z,73.31
2023-04-01T04:25:28.428Z,66.19
2023-04-01T04:26:28.488Z,71.53
2023-04-01T04:27:28.494Z,74.63
2023-04-01T04:28:28.569Z,76.38
2023-04-01T04:29:28.636Z,71.20
2023-04-01T04:30:28.648Z,75.10
2023-04-01T04:31:29.370Z,72.65
2023-04-01T04:32:30.019Z,79.17
2023-04-01T04:33:28.806Z,70.95
2023-04-01T04:34:28.874Z,72.64
2023-04-01T04:35:28.964Z,68.59
2023-04-01T04:36:28.970Z,58.40
2023-04-01T04:37:29.087Z,72.75
2023-04-01T04:38:29.126Z,81.25
2023-04-01T04:39:29.180Z,71.57
2023-04-01T04:40:29.219Z,69.38
2023-04-01T04:41:29.278Z,70.87
2023-04-01T04:42:29.327Z,71.02
2023-04-01T04:43:29.420Z,69.54
2023-04-01T04:44:29.520Z,68.96
2023-04-01T04:45:29.534Z,72.12
2023-04-01T04:46:29.643Z,70.78
2023-04-01T04:47:29.711Z,61.15
2023-04-01T04:48:29.702Z,64.84
2023-04-01T04:49:29.793Z,67.62
2023-04-01T04:50:29.826Z,73.61
2023-04-01T04:51:29.894Z,77.54
2023-04-01T04:52:29.948Z,79.66
2023-04-01T04:53:30.018Z,74.52
2023-04-01T04:54:30.091Z,67.17
2023-04-01T04:55:30.159Z,71.84
2023-04-01T04:56:30.204Z,71.49
2023-04-01T04:57:30.397Z,80.05
2023-04-01T04:58:30.324Z,73.15
2023-04-01T04:59:30.387Z,66.29
2023-04-01T05:00:30.411Z,71.11
2023-04-01T05:01:30.574Z,72.99
2023-04-01T05:02:30.634Z,74.57
2023-04-01T05:03:30.668Z,64.28
2023-04-01T05:04:30.618Z,61.47
2023-04-01T05:05:30.924Z,71.18
2023-04-01T05:06:30.766Z,71.96
2023-04-01T05:07:30.794Z,74.78
2023-04-01T05:08:30.898Z,62.58
2023-04-01T05:09:30.951Z,72.03
2023-04-01T05:10:31.006Z,64.05
2023-04-01T05:11:31.049Z,67.83
2023-04-01T05:12:31.155Z,62.38
2023-04-01T05:13:31.189Z,64.31
2023-04-01T05:14:31.298Z,75.78
2023-04-01T05:15:31.716Z,71.33
2023-04-01T05:16:31.448Z,75.65
2023-04-01T05:17:31.453Z,74.35
2023-04-01T05:18:31.479Z,58.11
2023-04-01T05:19:31.526Z,62.80
2023-04-01T05:20:31.572Z,65.61
2023-04-01T05:21:31.552Z,60.56
2023-04-01T05:22:31.606Z,67.97
2023-04-01T05:23:31.585Z,70.01
2023-04-01T05:24:31.588Z,65.26
2023-04-01T05:25:31.822Z,62.72
2023-04-01T05:26:31.631Z,73.86
2023-04-01T05:27:31.621Z,70.99
2023-04-01T05:28:31.656Z,71.04
2023-04-01T05:29:31.642Z,73.66
2023-04-01T05:30:31.664Z,63.23
2023-04-01T05:31:31.776Z,70.31
2023-04-01T05:32:31.754Z,70.00
2023-04-01T05:33:31.789Z,80.64
2023-04-01T05:34:31.906Z,75.66
2023-04-01T05:35:32.178Z,70.75
2023-04-01T05:36:31.932Z,57.20
2023-04-01T05:37:31.945Z,76.33
2023-04-01T05:38:31.966Z,65.73
2023-04-01T05:39:32.040Z,69.30
2023-04-01T05:40:32.087Z,72.39
2023-04-01T05:41:32.129Z,66.68
2023-04-01T05:42:32.170Z,71.56
2023-04-01T05:43:32.208Z,69.35
2023-04-01T05:44:32.268Z,75.40
2023-04-01T05:45:32.617Z,79.56
2023-04-01T05:46:32.448Z,72.69
2023-04-01T05:47:32.395Z,67.71
2023-04-01T05:48:32.407Z,69.16
2023-04-01T05:49:32.449Z,78.42
2023-04-01T05:50:32.496Z,75.92
2023-04-01T05:51:32.541Z,78.88
2023-04-01T05:52:32.550Z,70.02
2023-04-01T05:53:32.609Z,78.67
2023-04-01T05:54:32.690Z,80.00
2023-04-01T05:55:32.975Z,81.23
2023-04-01T05:56:32.748Z,82.84
2023-04-01T05:57:32.899Z,75.73
2023-04-01T05:58:32.827Z,74.24
2023-04-01T05:59:32.807Z,71.85
2023-04-01T06:00:32.856Z,74.97
2023-04-01T06:01:32.839Z,77.76
2023-04-01T06:02:32.923Z,79.04
2023-04-01T06:03:32.995Z,78.93
2023-04-01T06:04:32.960Z,81.53
2023-04-01T06:05:33.198Z,85.21
2023-04-01T06:06:33.008Z,73.73
2023-04-01T06:07:33.058Z,81.61
2023-04-01T06:08:33.096Z,84.41
2023-04-01T06:09:33.092Z,77.88
2023-04-01T06:10:33.140Z,76.47
2023-04-01T06:11:33.184Z,77.74
2023-04-01T06:12:33.188Z,78.41
2023-04-01T06:13:33.230Z,73.94
2023-04-01T06:14:33.264Z,77.87
2023-04-01T06:15:33.520Z,80.71
2023-04-01T06:16:33.325Z,79.09
2023-04-01T06:17:33.338Z,76.08
2023-04-01T06:18:33.343Z,77.32
2023-04-01T06:19:33.385Z,77.41
2023-04-01T06:20:33.407Z,78.40
2023-04-01T06:21:33.482Z,85.56
2023-04-01T06:22:33.466Z,75.56
2023-04-01T06:23:33.578Z,72.91
2023-04-01T06:24:33.591Z,74.62
2023-04-01T06:25:33.809Z,69.81
2023-04-01T06:26:33.573Z,60.84
2023-04-01T06:27:33.606Z,68.59
2023-04-01T06:28:33.570Z,66.39
2023-04-01T06:29:33.613Z,72.66
2023-04-01T06:30:33.645Z,82.99
2023-04-01T06:31:33.674Z,87.58
2023-04-01T06:32:33.697Z,70.52
2023-04-01T06:33:33.719Z,73.71
2023-04-01T06:34:33.773Z,87.98
2023-04-01T06:35:34.131Z,77.66
2023-04-01T06:36:33.907Z,74.25
2023-04-01T06:37:33.844Z,65.72
2023-04-01T06:38:35.446Z,79.08
2023-04-01T06:39:33.916Z,78.91
2023-04-01T06:40:33.911Z,68.38
2023-04-01T06:41:33.990Z,71.81
2023-04-01T06:42:34.025Z,68.96
2023-04-01T06:43:34.113Z,75.63
2023-04-01T06:44:34.194Z,70.62
2023-04-01T06:45:34.451Z,67.34
2023-04-01T06:46:34.277Z,69.17
2023-04-01T06:47:34.379Z,68.23
2023-04-01T06:48:34.430Z,73.77
2023-04-01T06:49:34.486Z,74.87
2023-04-01T06:50:34.560Z,73.81
2023-04-01T06:51:34.635Z,79.79
2023-04-01T06:52:34.677Z,86.60
2023-04-01T06:53:34.739Z,71.50
2023-04-01T06:54:34.796Z,72.75
2023-04-01T06:55:35.088Z,81.48
2023-04-01T06:56:34.914Z,70.96
2023-04-01T06:57:34.979Z,77.44
2023-04-01T06:58:35.025Z,74.15
2023-04-01T06:59:35.156Z,77.05
2023-04-01T07:00:35.158Z,77.78
2023-04-01T07:01:35.250Z,72.68
2023-04-01T07:02:35.280Z,78.20
2023-04-01T07:03:35.308Z,78.83
2023-04-01T07:04:35.385Z,86.21
2023-04-01T07:05:35.383Z,89.15
2023-04-01T07:06:35.465Z,87.60
2023-04-01T07:07:35.524Z,78.65
2023-04-01T07:08:35.589Z,85.51
2023-04-01T07:09:35.665Z,78.42
2023-04-01T07:10:35.670Z,86.06
2023-04-01T07:11:35.783Z,83.13
2023-04-01T07:12:35.805Z,84.23
2023-04-01T07:13:35.876Z,82.98
2023-04-01T07:14:35.944Z,81.53
2023-04-01T07:15:35.993Z,76.93
2023-04-01T07:16:36.119Z,81.69
2023-04-01T07:17:36.143Z,83.98
2023-04-01T07:18:36.183Z,85.43
2023-04-01T07:19:36.224Z,81.30
2023-04-01T07:20:36.317Z,84.12
2023-04-01T07:21:36.367Z,85.51
2023-04-01T07:22:36.425Z,82.47
2023-04-01T07:23:36.531Z,76.78
2023-04-01T07:24:36.529Z,89.91
2023-04-01T07:25:36.593Z,93.55
2023-04-01T07:26:36.621Z,88.21
2023-04-01T07:27:36.780Z,82.23
2023-04-01T07:28:36.735Z,79.95
2023-04-01T07:29:36.823Z,86.76
2023-04-01T07:30:36.841Z,77.20
2023-04-01T07:31:36.970Z,76.97
2023-04-01T07:32:37.032Z,91.72
2023-04-01T07:33:37.001Z,82.02
2023-04-01T07:34:37.068Z,90.34
2023-04-01T07:35:37.259Z,82.46
2023-04-01T07:36:37.180Z,91.47
2023-04-01T07:37:37.174Z,87.60
2023-04-01T07:38:37.380Z,77.66
2023-04-01T07:39:37.306Z,83.17
2023-04-01T07:40:37.319Z,84.99
2023-04-01T07:41:37.373Z,86.63
2023-04-01T07:42:37.438Z,86.52
2023-04-01T07:43:37.489Z,84.12
2023-04-01T07:44:37.544Z,85.16
2023-04-01T07:45:37.590Z,83.86
2023-04-01T07:46:37.694Z,81.83
2023-04-01T07:47:37.704Z,87.04
2023-04-01T07:48:37.721Z,77.04
2023-04-01T07:49:37.795Z,88.91
2023-04-01T07:50:37.828Z,85.87
2023-04-01T07:51:37.865Z,89.06
2023-04-01T07:52:37.951Z,92.00
2023-04-01T07:53:37.960Z,84.50
2023-04-01T07:54:38.035Z,84.04
2023-04-01T07:55:38.089Z,86.25
2023-04-01T07:56:38.128Z,91.68
2023-04-01T07:57:38.228Z,81.68
2023-04-01T07:58:38.278Z,91.64
2023-04-01T07:59:38.312Z,90.10
2023-04-01T08:00:38.352Z,92.59
2023-04-01T08:01:38.396Z,81.18
2023-04-01T08:02:38.594Z,88.27
2023-04-01T08:03:38.690Z,89.75
2023-04-01T08:04:38.649Z,91.45
2023-04-01T08:05:38.615Z,82.28
2023-04-01T08:06:38.708Z,88.98
2023-04-01T08:07:38.710Z,83.47
2023-04-01T08:08:38.787Z,85.10
2023-04-01T08:09:38.890Z,89.02
2023-04-01T08:10:38.945Z,86.25
2023-04-01T08:11:39.866Z,78.50
2023-04-01T08:12:39.010Z,90.25
2023-04-01T08:13:39.085Z,78.88
2023-04-01T08:14:39.124Z,79.75
2023-04-01T08:15:39.164Z,86.59
2023-04-01T08:16:39.282Z,83.87
2023-04-01T08:17:39.270Z,81.19
2023-04-01T08:18:39.310Z,78.05
2023-04-01T08:19:39.386Z,81.46
2023-04-01T08:20:39.418Z,88.59
2023-04-01T08:21:39.468Z,89.99
2023-04-01T08:22:39.504Z,91.19
2023-04-01T08:23:39.538Z,87.76
2023-04-01T08:24:47.085Z,84.16
2023-04-01T08:25:40.578Z,84.45
2023-04-01T08:26:39.615Z,85.34
2023-04-01T08:27:39.589Z,88.10
2023-04-01T08:28:39.549Z,89.11
2023-04-01T08:29:39.560Z,83.78
2023-04-01T08:30:39.534Z,91.61
2023-04-01T08:31:39.605Z,86.18
2023-04-01T08:32:39.530Z,84.02
2023-04-01T08:33:39.489Z,87.11
2023-04-01T08:34:39.526Z,85.94
2023-04-01T08:35:39.975Z,84.69
2023-04-01T08:36:39.674Z,88.90
2023-04-01T08:37:39.691Z,96.56
2023-04-01T08:38:39.722Z,95.94
2023-04-01T08:39:39.799Z,93.23
2023-04-01T08:40:39.859Z,91.86
2023-04-01T08:41:39.896Z,94.13
2023-04-01T08:42:39.942Z,88.38
2023-04-01T08:43:39.984Z,87.73
2023-04-01T08:44:40.082Z,85.62
2023-04-01T08:45:40.171Z,85.35
2023-04-01T08:46:40.178Z,84.59
2023-04-01T08:47:40.307Z,82.59
2023-04-01T08:48:40.288Z,85.82
2023-04-01T08:49:40.331Z,83.98
2023-04-01T08:50:40.419Z,80.80
2023-04-01T08:51:40.465Z,71.61
2023-04-01T08:52:40.495Z,79.59
2023-04-01T08:53:40.573Z,79.70
2023-04-01T08:54:40.615Z,84.89
2023-04-01T08:55:40.679Z,82.41
2023-04-01T08:56:40.732Z,86.43
2023-04-01T08:57:40.819Z,87.71
2023-04-01T08:58:40.875Z,82.23
2023-04-01T08:59:40.926Z,83.84
2023-04-01T09:00:40.968Z,79.88
2023-04-01T09:01:41.018Z,82.53
2023-04-01T09:02:41.228Z,80.16
2023-04-01T09:03:41.996Z,83.05
2023-04-01T09:04:41.193Z,77.52
2023-04-01T09:05:41.322Z,72.76
2023-04-01T09:06:41.340Z,80.63
2023-04-01T09:07:41.368Z,73.04
2023-04-01T09:08:41.461Z,76.17
2023-04-01T09:09:41.528Z,73.38
2023-04-01T09:10:41.576Z,79.92
2023-04-01T09:11:41.682Z,74.51
2023-04-01T09:12:41.663Z,62.98
2023-04-01T09:13:41.725Z,68.38
2023-04-01T09:14:41.805Z,67.99
2023-04-01T09:15:41.859Z,67.18
2023-04-01T09:16:41.922Z,74.09
2023-04-01T09:17:42.037Z,76.19
2023-04-01T09:18:42.051Z,66.42
2023-04-01T09:19:42.077Z,65.81
2023-04-01T09:20:42.154Z,71.30
2023-04-01T09:21:42.212Z,75.09
2023-04-01T09:22:42.266Z,71.62
2023-04-01T09:23:42.328Z,67.96
2023-04-01T09:24:42.438Z,69.67
2023-04-01T09:25:42.469Z,68.27
2023-04-01T09:26:42.522Z,61.58
2023-04-01T09:27:42.587Z,60.93
2023-04-01T09:28:42.649Z,67.19
2023-04-01T09:29:42.699Z,71.65
2023-04-01T09:30:42.748Z,61.89
2023-04-01T09:31:42.883Z,73.06
2023-04-01T09:32:42.950Z,64.72
2023-04-01T09:33:42.966Z,57.27
2023-04-01T09:34:43.038Z,66.62
2023-04-01T09:35:43.101Z,56.88
2023-04-01T09:36:43.127Z,61.50
2023-04-01T09:37:43.186Z,60.51
2023-04-01T09:38:43.216Z,57.26
2023-04-01T09:39:43.327Z,64.77
2023-04-01T09:40:43.353Z,65.26
2023-04-01T09:41:43.420Z,59.91
2023-04-01T09:42:43.463Z,57.03
2023-04-01T09:43:43.516Z,53.84
2023-04-01T09:44:43.580Z,59.64
2023-04-01T09:45:43.623Z,55.64
2023-04-01T09:46:43.842Z,50.44
2023-04-01T09:47:43.810Z,58.78
2023-04-01T09:48:43.779Z,49.01
2023-04-01T09:49:43.837Z,52.17
2023-04-01T09:50:43.880Z,60.18
2023-04-01T09:51:45.570Z,47.64
2023-04-01T09:52:45.345Z,47.83
2023-04-01T09:53:44.003Z,54.11
2023-04-01T09:54:44.074Z,53.93
2023-04-01T09:55:44.128Z,49.22
2023-04-01T09:56:44.144Z,48.24
2023-04-01T09:57:44.235Z,50.12
2023-04-01T09:58:44.334Z,51.60
2023-04-01T09:59:44.294Z,50.83
2023-04-01T10:00:44.306Z,43.39
2023-04-01T10:01:44.471Z,53.58
2023-04-01T10:02:44.429Z,49.60
2023-04-01T10:03:44.434Z,43.31
2023-04-01T10:04:44.531Z,44.43
2023-04-01T10:05:44.610Z,48.34
2023-04-01T10:06:44.606Z,51.72
2023-04-01T10:07:44.670Z,40.35
2023-04-01T10:08:44.682Z,42.09
2023-04-01T10:09:44.796Z,48.33
2023-04-01T10:10:44.819Z,52.29
2023-04-01T10:11:44.826Z,51.33
2023-04-01T10:12:44.863Z,48.63
2023-04-01T10:13:44.914Z,47.30
2023-04-01T10:14:44.961Z,49.06
2023-04-01T10:15:44.992Z,41.11
2023-04-01T10:16:45.126Z,42.39
2023-04-01T10:17:45.126Z,42.38
2023-04-01T10:18:45.118Z,47.67
2023-04-01T10:19:45.196Z,34.05
2023-04-01T10:20:45.190Z,36.48
2023-04-01T10:21:45.234Z,40.95
2023-04-01T10:22:45.292Z,37.49
2023-04-01T10:23:45.365Z,34.70
2023-04-01T10:24:45.386Z,39.49
2023-04-01T10:25:45.438Z,33.00
2023-04-01T10:26:45.499Z,31.05
2023-04-01T10:27:45.543Z,27.89
2023-04-01T10:28:45.562Z,30.95
2023-04-01T10:29:45.616Z,34.73
2023-04-01T10:30:45.640Z,33.25
2023-04-01T10:31:45.773Z,27.99
2023-04-01T10:32:45.729Z,28.63
2023-04-01T10:33:45.766Z,28.39
2023-04-01T10:34:45.825Z,33.64
2023-04-01T10:35:45.863Z,33.62
2023-04-01T10:36:45.923Z,31.69
2023-04-01T10:37:45.923Z,30.94
2023-04-01T10:38:46.013Z,35.02
2023-04-01T10:39:46.040Z,33.16
2023-04-01T10:40:46.105Z,35.08
2023-04-01T10:41:46.135Z,34.64
2023-04-01T10:42:46.161Z,31.70
2023-04-01T10:43:46.222Z,32.14
2023-04-01T10:44:46.293Z,38.34
2023-04-01T10:45:46.417Z,42.01
2023-04-01T10:46:46.320Z,42.42
2023-04-01T10:47:46.464Z,40.03
2023-04-01T10:48:46.452Z,48.52
2023-04-01T10:49:46.446Z,34.24
2023-04-01T10:50:46.465Z,37.66
2023-04-01T10:51:46.572Z,31.06
2023-04-01T10:52:46.575Z,32.04
2023-04-01T10:53:46.601Z,43.74
2023-04-01T10:54:46.753Z,38.34
2023-04-01T10:55:46.652Z,44.85
2023-04-01T10:56:46.769Z,48.63
2023-04-01T10:57:46.738Z,37.93
2023-04-01T10:58:46.830Z,42.25
2023-04-01T10:59:46.846Z,45.47
2023-04-01T11:00:46.858Z,41.76
2023-04-01T11:01:47.898Z,42.83
2023-04-01T11:02:46.983Z,37.79
2023-04-01T11:03:47.018Z,34.72
2023-04-01T11:04:46.927Z,37.54
2023-04-01T11:05:46.883Z,35.02
2023-04-01T11:06:46.870Z,29.31
2023-04-01T11:07:55.822Z,32.81
2023-04-01T11:08:47.832Z,33.38
2023-04-01T11:09:46.847Z,34.94
2023-04-01T11:10:46.858Z,35.85
2023-04-01T11:11:46.834Z,34.14
2023-04-01T11:12:46.845Z,31.95
2023-04-01T11:13:46.808Z,40.88
2023-04-01T11:14:46.826Z,35.80
2023-04-01T11:15:46.872Z,38.93
2023-04-01T11:16:46.838Z,35.74
2023-04-01T11:17:47.543Z,35.10
2023-04-01T11:18:46.813Z,33.16
2023-04-01T11:19:46.789Z,38.25
2023-04-01T11:20:46.798Z,37.23
2023-04-01T11:21:46.775Z,43.20
2023-04-01T11:22:46.794Z,38.54
2023-04-01T11:23:58.306Z,48.74
2023-04-01T11:24:47.742Z,48.79
2023-04-01T11:25:46.750Z,47.83
2023-04-01T11:26:46.759Z,47.77
2023-04-01T11:27:46.713Z,48.54
2023-04-01T11:28:46.724Z,52.83
2023-04-01T11:29:58.695Z,55.97
2023-04-01T11:30:47.710Z,56.17
2023-04-01T11:31:46.742Z,56.12
2023-04-01T11:32:46.752Z,56.30
2023-04-01T11:33:46.702Z,55.57
2023-04-01T11:34:46.714Z,54.78
2023-04-01T11:35:46.735Z,55.24
2023-04-01T11:36:46.735Z,58.70
2023-04-01T11:37:46.702Z,47.24
2023-04-01T11:38:46.674Z,50.56
2023-04-01T11:39:46.644Z,44.53
2023-04-01T11:40:46.647Z,52.46
2023-04-01T11:41:46.655Z,46.25
2023-04-01T11:42:46.653Z,45.51
2023-04-01T11:43:46.647Z,42.40
2023-04-01T11:44:46.608Z,44.08
2023-04-01T11:45:46.630Z,38.17
2023-04-01T11:46:46.663Z,31.17
2023-04-01T11:47:46.637Z,35.96
2023-04-01T11:48:46.557Z,31.12
2023-04-01T11:49:46.568Z,24.14
2023-04-01T11:50:46.573Z,37.81
2023-04-01T11:51:46.654Z,31.65
2023-04-01T11:52:46.683Z,32.50
2023-04-01T11:53:46.685Z,37.67
2023-04-01T11:54:46.684Z,34.93
2023-04-01T11:55:48.098Z,34.78
2023-04-01T11:56:46.830Z,33.34
2023-04-01T11:57:46.781Z,31.47
2023-04-01T11:58:46.829Z,35.93
2023-04-01T11:59:46.816Z,29.83
2023-04-01T12:00:46.851Z,33.86
2023-04-01T12:01:46.851Z,38.65
2023-04-01T12:02:46.985Z,35.42
2023-04-01T12:03:47.053Z,36.16
2023-04-01T12:04:46.946Z,38.65
2023-04-01T12:05:46.928Z,40.36
2023-04-01T12:06:46.976Z,43.15
2023-04-01T12:07:47.002Z,47.20
2023-04-01T12:08:47.017Z,45.32
2023-04-01T12:09:47.007Z,49.14
2023-04-01T12:10:47.059Z,45.71
2023-04-01T12:11:47.086Z,42.75
2023-04-01T12:12:58.137Z,47.71
2023-04-01T12:13:48.045Z,47.81
2023-04-01T12:14:47.093Z,47.90
2023-04-01T12:15:47.083Z,45.99
2023-04-01T12:16:47.245Z,50.00
2023-04-01T12:17:47.090Z,51.07
2023-04-01T12:18:47.020Z,44.90
2023-04-01T12:19:47.013Z,47.07
2023-04-01T12:20:47.001Z,48.87
2023-04-01T12:21:46.985Z,48.79
2023-04-01T12:22:46.982Z,47.54
2023-04-01T12:23:46.972Z,44.80
2023-04-01T12:24:46.950Z,50.79
2023-04-01T12:25:47.002Z,45.99
2023-04-01T12:26:46.964Z,43.01
2023-04-01T12:27:46.931Z,46.30
2023-04-01T12:28:46.951Z,46.30
2023-04-01T12:29:46.953Z,41.06
2023-04-01T12:30:46.942Z,45.27
2023-04-01T12:31:46.952Z,42.40
2023-04-01T12:32:46.990Z,46.06
2023-04-01T12:33:46.924Z,47.02
2023-04-01T12:34:46.914Z,48.75
2023-04-01T12:35:46.939Z,46.08
2023-04-01T12:36:47.646Z,46.89
2023-04-01T12:37:46.913Z,42.73
2023-04-01T12:38:46.876Z,44.54
2023-04-01T12:39:46.865Z,41.07
2023-04-01T12:40:46.840Z,32.80
2023-04-01T12:41:46.859Z,25.43
2023-04-01T12:42:46.875Z,26.61
2023-04-01T12:43:46.896Z,28.66
2023-04-01T12:44:46.909Z,25.00
2023-04-01T12:45:46.939Z,31.61
2023-04-01T12:46:46.931Z,32.55
2023-04-01T12:47:46.976Z,39.63
2023-04-01T12:48:47.005Z,38.47
2023-04-01T12:49:46.971Z,33.58
2023-04-01T12:50:47.029Z,25.72
2023-04-01T12:51:47.020Z,34.29
2023-04-01T12:52:46.998Z,31.20